sensor_id;sensor_type;location;lat;lon;timestamp;P1;durP1;ratioP1;P2;durP2;ratioP2
4148;SDS011;2088;51.032;7.082;2023-03-09T00:01:49;20.13;;;10.97;;
4148;SDS011;2088;51.032;7.082;2023-03-09T00:04:18;21.80;;;10.80;;
4148;SDS011;2088;51.032;7.082;2023-03-09T00:06:45;13.07;;;9.00;;
4148;SDS011;2088;51.032;7.082;2023-03-09T00:09:12;15.30;;;7.77;;
4148;SDS011;2088;51.032;7.082;2023-03-09T00:11:40;11.80;;;6.70;;
4148;SDS011;2088;51.032;7.082;2023-03-09T00:14:08;11.60;;;7.30;;
4148;SDS011;2088;51.032;7.082;2023-03-09T00:16:36;22.07;;;10.53;;
4148;SDS011;2088;51.032;7.082;2023-03-09T00:19:04;24.67;;;11.27;;
4148;SDS011;2088;51.032;7.082;2023-03-09T00:21:32;17.30;;;8.23;;
4148;SDS011;2088;51.032;7.082;2023-03-09T00:24:01;10.73;;;7.13;;
4148;SDS011;2088;51.032;7.082;2023-03-09T00:26:29;10.60;;;6.90;;
4148;SDS011;2088;51.032;7.082;2023-03-09T00:28:56;17.43;;;7.60;;
4148;SDS011;2088;51.032;7.082;2023-03-09T00:31:23;15.80;;;7.33;;
4148;SDS011;2088;51.032;7.082;2023-03-09T00:33:50;13.83;;;7.83;;
4148;SDS011;2088;51.032;7.082;2023-03-09T00:36:17;19.37;;;9.30;;
4148;SDS011;2088;51.032;7.082;2023-03-09T00:38:50;17.37;;;10.20;;
4148;SDS011;2088;51.032;7.082;2023-03-09T00:41:17;22.70;;;10.67;;
4148;SDS011;2088;51.032;7.082;2023-03-09T00:43:44;15.30;;;9.40;;
4148;SDS011;2088;51.032;7.082;2023-03-09T00:46:11;14.67;;;8.47;;
4148;SDS011;2088;51.032;7.082;2023-03-09T00:48:38;18.17;;;9.03;;
4148;SDS011;2088;51.032;7.082;2023-03-09T00:51:06;13.80;;;7.50;;
4148;SDS011;2088;51.032;7.082;2023-03-09T00:53:33;15.27;;;8.20;;
4148;SDS011;2088;51.032;7.082;2023-03-09T00:56:02;13.80;;;8.10;;
4148;SDS011;2088;51.032;7.082;2023-03-09T00:58:29;11.33;;;7.13;;
4148;SDS011;2088;51.032;7.082;2023-03-09T01:00:56;12.60;;;7.90;;
4148;SDS011;2088;51.032;7.082;2023-03-09T01:03:23;12.60;;;7.70;;
4148;SDS011;2088;51.032;7.082;2023-03-09T01:05:50;15.60;;;9.50;;
4148;SDS011;2088;51.032;7.082;2023-03-09T01:08:18;13.97;;;8.60;;
4148;SDS011;2088;51.032;7.082;2023-03-09T01:10:45;13.70;;;8.30;;
4148;SDS011;2088;51.032;7.082;2023-03-09T01:13:14;20.60;;;9.13;;
4148;SDS011;2088;51.032;7.082;2023-03-09T01:15:41;36.73;;;11.90;;
4148;SDS011;2088;51.032;7.082;2023-03-09T01:18:08;21.03;;;9.17;;
4148;SDS011;2088;51.032;7.082;2023-03-09T01:20:35;19.27;;;9.30;;
4148;SDS011;2088;51.032;7.082;2023-03-09T01:23:03;15.50;;;9.00;;
4148;SDS011;2088;51.032;7.082;2023-03-09T01:25:30;16.20;;;8.90;;
4148;SDS011;2088;51.032;7.082;2023-03-09T01:27:57;18.90;;;10.27;;
4148;SDS011;2088;51.032;7.082;2023-03-09T01:30:25;20.27;;;9.40;;
4148;SDS011;2088;51.032;7.082;2023-03-09T01:32:52;18.80;;;9.03;;
4148;SDS011;2088;51.032;7.082;2023-03-09T01:35:19;15.63;;;8.40;;
4148;SDS011;2088;51.032;7.082;2023-03-09T01:37:46;18.97;;;8.60;;
4148;SDS011;2088;51.032;7.082;2023-03-09T01:40:16;14.43;;;8.37;;
4148;SDS011;2088;51.032;7.082;2023-03-09T01:42:43;17.10;;;9.97;;
4148;SDS011;2088;51.032;7.082;2023-03-09T01:47:54;17.97;;;9.00;;
4148;SDS011;2088;51.032;7.082;2023-03-09T01:50:24;21.10;;;9.00;;
4148;SDS011;2088;51.032;7.082;2023-03-09T01:52:52;22.27;;;10.13;;
4148;SDS011;2088;51.032;7.082;2023-03-09T01:55:20;24.10;;;10.37;;
4148;SDS011;2088;51.032;7.082;2023-03-09T01:57:48;52.77;;;11.63;;
4148;SDS011;2088;51.032;7.082;2023-03-09T02:00:18;99.53;;;13.70;;
4148;SDS011;2088;51.032;7.082;2023-03-09T02:02:47;30.90;;;11.10;;
4148;SDS011;2088;51.032;7.082;2023-03-09T02:05:17;44.83;;;11.20;;
4148;SDS011;2088;51.032;7.082;2023-03-09T02:07:46;69.73;;;12.47;;
4148;SDS011;2088;51.032;7.082;2023-03-09T02:10:17;54.70;;;10.97;;
4148;SDS011;2088;51.032;7.082;2023-03-09T02:12:49;34.43;;;9.83;;
4148;SDS011;2088;51.032;7.082;2023-03-09T02:15:18;27.00;;;10.00;;
4148;SDS011;2088;51.032;7.082;2023-03-09T02:17:45;16.23;;;9.53;;
4148;SDS011;2088;51.032;7.082;2023-03-09T02:20:13;30.97;;;11.70;;
4148;SDS011;2088;51.032;7.082;2023-03-09T02:22:44;33.47;;;11.97;;
4148;SDS011;2088;51.032;7.082;2023-03-09T02:25:15;24.13;;;11.33;;
4148;SDS011;2088;51.032;7.082;2023-03-09T02:27:48;76.63;;;15.77;;
4148;SDS011;2088;51.032;7.082;2023-03-09T02:30:15;41.30;;;11.50;;
4148;SDS011;2088;51.032;7.082;2023-03-09T02:32:42;49.70;;;14.80;;
4148;SDS011;2088;51.032;7.082;2023-03-09T02:35:09;46.43;;;13.23;;
4148;SDS011;2088;51.032;7.082;2023-03-09T02:37:37;51.23;;;13.70;;
4148;SDS011;2088;51.032;7.082;2023-03-09T02:40:06;32.93;;;13.87;;
4148;SDS011;2088;51.032;7.082;2023-03-09T02:42:36;25.30;;;11.13;;
4148;SDS011;2088;51.032;7.082;2023-03-09T02:45:05;21.63;;;11.53;;
4148;SDS011;2088;51.032;7.082;2023-03-09T02:47:32;27.33;;;11.90;;
4148;SDS011;2088;51.032;7.082;2023-03-09T02:50:01;27.93;;;11.60;;
4148;SDS011;2088;51.032;7.082;2023-03-09T02:52:28;25.47;;;10.90;;
4148;SDS011;2088;51.032;7.082;2023-03-09T02:54:55;27.10;;;11.60;;
4148;SDS011;2088;51.032;7.082;2023-03-09T02:57:22;24.27;;;12.20;;
4148;SDS011;2088;51.032;7.082;2023-03-09T02:59:49;20.50;;;11.20;;
4148;SDS011;2088;51.032;7.082;2023-03-09T03:02:17;25.37;;;12.50;;
4148;SDS011;2088;51.032;7.082;2023-03-09T03:04:44;21.80;;;10.13;;
4148;SDS011;2088;51.032;7.082;2023-03-09T03:07:11;25.50;;;12.93;;
4148;SDS011;2088;51.032;7.082;2023-03-09T03:09:38;26.37;;;12.10;;
4148;SDS011;2088;51.032;7.082;2023-03-09T03:12:05;21.63;;;10.50;;
4148;SDS011;2088;51.032;7.082;2023-03-09T03:14:33;24.03;;;12.30;;
4148;SDS011;2088;51.032;7.082;2023-03-09T03:17:00;24.33;;;11.20;;
4148;SDS011;2088;51.032;7.082;2023-03-09T03:19:28;26.67;;;11.37;;
4148;SDS011;2088;51.032;7.082;2023-03-09T03:21:57;29.27;;;13.53;;
4148;SDS011;2088;51.032;7.082;2023-03-09T03:24:24;23.97;;;11.87;;
4148;SDS011;2088;51.032;7.082;2023-03-09T03:26:51;26.40;;;12.63;;
4148;SDS011;2088;51.032;7.082;2023-03-09T03:29:18;28.47;;;11.30;;
4148;SDS011;2088;51.032;7.082;2023-03-09T03:31:45;28.07;;;12.57;;
4148;SDS011;2088;51.032;7.082;2023-03-09T03:34:12;28.70;;;12.80;;
4148;SDS011;2088;51.032;7.082;2023-03-09T03:36:40;30.67;;;12.80;;
4148;SDS011;2088;51.032;7.082;2023-03-09T03:39:07;32.17;;;13.40;;
4148;SDS011;2088;51.032;7.082;2023-03-09T03:41:34;26.00;;;12.00;;
4148;SDS011;2088;51.032;7.082;2023-03-09T03:44:02;30.10;;;13.87;;
4148;SDS011;2088;51.032;7.082;2023-03-09T03:46:29;53.83;;;13.27;;
4148;SDS011;2088;51.032;7.082;2023-03-09T03:48:56;42.23;;;11.87;;
4148;SDS011;2088;51.032;7.082;2023-03-09T03:51:23;55.83;;;14.17;;
4148;SDS011;2088;51.032;7.082;2023-03-09T03:53:52;38.23;;;14.17;;
4148;SDS011;2088;51.032;7.082;2023-03-09T03:56:19;62.60;;;15.20;;
4148;SDS011;2088;51.032;7.082;2023-03-09T03:58:46;47.07;;;14.33;;
4148;SDS011;2088;51.032;7.082;2023-03-09T04:01:13;47.67;;;15.80;;
4148;SDS011;2088;51.032;7.082;2023-03-09T04:03:40;45.63;;;14.70;;
4148;SDS011;2088;51.032;7.082;2023-03-09T04:06:07;60.53;;;15.40;;
4148;SDS011;2088;51.032;7.082;2023-03-09T04:08:35;74.80;;;17.70;;
4148;SDS011;2088;51.032;7.082;2023-03-09T04:11:05;60.77;;;18.53;;
4148;SDS011;2088;51.032;7.082;2023-03-09T04:13:32;44.23;;;15.17;;
4148;SDS011;2088;51.032;7.082;2023-03-09T04:15:59;66.33;;;17.80;;
4148;SDS011;2088;51.032;7.082;2023-03-09T04:18:26;60.43;;;18.00;;
4148;SDS011;2088;51.032;7.082;2023-03-09T04:20:53;105.87;;;20.10;;
4148;SDS011;2088;51.032;7.082;2023-03-09T04:23:20;79.23;;;20.53;;
4148;SDS011;2088;51.032;7.082;2023-03-09T04:25:52;85.17;;;18.57;;
4148;SDS011;2088;51.032;7.082;2023-03-09T04:28:21;100.23;;;19.00;;
4148;SDS011;2088;51.032;7.082;2023-03-09T04:30:48;133.93;;;21.73;;
4148;SDS011;2088;51.032;7.082;2023-03-09T04:33:15;128.43;;;22.33;;
4148;SDS011;2088;51.032;7.082;2023-03-09T04:35:42;92.47;;;22.07;;
4148;SDS011;2088;51.032;7.082;2023-03-09T04:38:09;133.10;;;25.07;;
4148;SDS011;2088;51.032;7.082;2023-03-09T04:40:37;85.60;;;18.20;;
4148;SDS011;2088;51.032;7.082;2023-03-09T04:43:04;74.10;;;19.80;;
4148;SDS011;2088;51.032;7.082;2023-03-09T04:45:32;63.83;;;17.60;;
4148;SDS011;2088;51.032;7.082;2023-03-09T04:47:59;40.37;;;15.80;;
4148;SDS011;2088;51.032;7.082;2023-03-09T04:50:26;39.10;;;12.90;;
4148;SDS011;2088;51.032;7.082;2023-03-09T04:52:53;33.10;;;12.17;;
4148;SDS011;2088;51.032;7.082;2023-03-09T04:55:22;29.77;;;10.97;;
4148;SDS011;2088;51.032;7.082;2023-03-09T04:57:49;28.30;;;11.40;;
4148;SDS011;2088;51.032;7.082;2023-03-09T05:00:17;22.20;;;9.10;;
4148;SDS011;2088;51.032;7.082;2023-03-09T05:02:46;28.17;;;10.47;;
4148;SDS011;2088;51.032;7.082;2023-03-09T05:05:13;34.10;;;9.90;;
4148;SDS011;2088;51.032;7.082;2023-03-09T05:07:41;27.33;;;10.20;;
4148;SDS011;2088;51.032;7.082;2023-03-09T05:10:09;30.17;;;11.10;;
4148;SDS011;2088;51.032;7.082;2023-03-09T05:12:36;28.43;;;9.77;;
4148;SDS011;2088;51.032;7.082;2023-03-09T05:15:04;23.33;;;9.90;;
4148;SDS011;2088;51.032;7.082;2023-03-09T05:17:31;31.73;;;10.80;;
4148;SDS011;2088;51.032;7.082;2023-03-09T05:20:00;20.90;;;9.57;;
4148;SDS011;2088;51.032;7.082;2023-03-09T05:22:32;35.07;;;10.70;;
4148;SDS011;2088;51.032;7.082;2023-03-09T05:24:59;34.53;;;11.57;;
4148;SDS011;2088;51.032;7.082;2023-03-09T05:27:26;23.03;;;9.63;;
4148;SDS011;2088;51.032;7.082;2023-03-09T05:29:53;23.70;;;10.80;;
4148;SDS011;2088;51.032;7.082;2023-03-09T05:32:20;23.53;;;10.63;;
4148;SDS011;2088;51.032;7.082;2023-03-09T05:34:48;23.10;;;9.10;;
4148;SDS011;2088;51.032;7.082;2023-03-09T05:37:16;24.37;;;10.20;;
4148;SDS011;2088;51.032;7.082;2023-03-09T05:39:43;21.77;;;9.27;;
4148;SDS011;2088;51.032;7.082;2023-03-09T05:42:10;18.50;;;9.97;;
4148;SDS011;2088;51.032;7.082;2023-03-09T05:44:37;17.97;;;8.40;;
4148;SDS011;2088;51.032;7.082;2023-03-09T05:47:04;23.93;;;9.63;;
4148;SDS011;2088;51.032;7.082;2023-03-09T05:49:31;24.10;;;8.03;;
4148;SDS011;2088;51.032;7.082;2023-03-09T05:51:59;19.33;;;7.30;;
4148;SDS011;2088;51.032;7.082;2023-03-09T05:54:27;15.50;;;6.93;;
4148;SDS011;2088;51.032;7.082;2023-03-09T05:56:54;20.60;;;7.50;;
4148;SDS011;2088;51.032;7.082;2023-03-09T05:59:22;17.33;;;7.60;;
4148;SDS011;2088;51.032;7.082;2023-03-09T06:01:49;15.60;;;7.43;;
4148;SDS011;2088;51.032;7.082;2023-03-09T06:04:16;16.43;;;7.83;;
4148;SDS011;2088;51.032;7.082;2023-03-09T06:06:43;18.00;;;7.27;;
4148;SDS011;2088;51.032;7.082;2023-03-09T06:09:10;21.40;;;8.10;;
4148;SDS011;2088;51.032;7.082;2023-03-09T06:11:38;14.83;;;7.27;;
4148;SDS011;2088;51.032;7.082;2023-03-09T06:14:05;19.30;;;8.00;;
4148;SDS011;2088;51.032;7.082;2023-03-09T06:16:32;15.40;;;7.40;;
4148;SDS011;2088;51.032;7.082;2023-03-09T06:18:59;13.73;;;5.90;;
4148;SDS011;2088;51.032;7.082;2023-03-09T06:21:26;14.13;;;7.27;;
4148;SDS011;2088;51.032;7.082;2023-03-09T06:23:54;16.00;;;7.50;;
4148;SDS011;2088;51.032;7.082;2023-03-09T06:26:21;16.40;;;6.43;;
4148;SDS011;2088;51.032;7.082;2023-03-09T06:28:50;13.93;;;7.00;;
4148;SDS011;2088;51.032;7.082;2023-03-09T06:31:17;19.53;;;7.17;;
4148;SDS011;2088;51.032;7.082;2023-03-09T06:33:45;15.60;;;8.00;;
4148;SDS011;2088;51.032;7.082;2023-03-09T06:36:13;19.43;;;7.90;;
4148;SDS011;2088;51.032;7.082;2023-03-09T06:38:41;14.23;;;7.77;;
4148;SDS011;2088;51.032;7.082;2023-03-09T06:41:08;15.27;;;7.17;;
4148;SDS011;2088;51.032;7.082;2023-03-09T06:43:35;22.03;;;7.03;;
4148;SDS011;2088;51.032;7.082;2023-03-09T06:46:03;32.73;;;20.10;;
4148;SDS011;2088;51.032;7.082;2023-03-09T06:48:30;23.40;;;13.50;;
4148;SDS011;2088;51.032;7.082;2023-03-09T06:50:57;20.60;;;9.50;;
4148;SDS011;2088;51.032;7.082;2023-03-09T06:53:24;15.50;;;9.23;;
4148;SDS011;2088;51.032;7.082;2023-03-09T06:55:51;16.40;;;7.80;;
4148;SDS011;2088;51.032;7.082;2023-03-09T06:58:18;16.90;;;6.40;;
4148;SDS011;2088;51.032;7.082;2023-03-09T07:00:45;16.47;;;8.27;;
4148;SDS011;2088;51.032;7.082;2023-03-09T07:03:14;16.47;;;7.33;;
4148;SDS011;2088;51.032;7.082;2023-03-09T07:05:41;11.60;;;6.70;;
4148;SDS011;2088;51.032;7.082;2023-03-09T07:08:09;11.67;;;6.33;;
4148;SDS011;2088;51.032;7.082;2023-03-09T07:10:36;13.73;;;7.00;;
4148;SDS011;2088;51.032;7.082;2023-03-09T07:13:03;14.53;;;6.83;;
4148;SDS011;2088;51.032;7.082;2023-03-09T07:15:30;19.43;;;8.93;;
4148;SDS011;2088;51.032;7.082;2023-03-09T07:17:57;13.50;;;7.67;;
4148;SDS011;2088;51.032;7.082;2023-03-09T07:20:25;12.80;;;7.20;;
4148;SDS011;2088;51.032;7.082;2023-03-09T07:22:52;18.20;;;7.93;;
4148;SDS011;2088;51.032;7.082;2023-03-09T07:25:19;15.53;;;7.20;;
4148;SDS011;2088;51.032;7.082;2023-03-09T07:27:47;15.73;;;8.50;;
4148;SDS011;2088;51.032;7.082;2023-03-09T07:30:14;16.63;;;7.93;;
4148;SDS011;2088;51.032;7.082;2023-03-09T07:32:42;12.43;;;6.43;;
4148;SDS011;2088;51.032;7.082;2023-03-09T07:35:09;12.63;;;6.47;;
4148;SDS011;2088;51.032;7.082;2023-03-09T07:37:37;11.47;;;6.87;;
4148;SDS011;2088;51.032;7.082;2023-03-09T07:40:05;14.27;;;6.70;;
4148;SDS011;2088;51.032;7.082;2023-03-09T07:42:33;11.00;;;6.53;;
4148;SDS011;2088;51.032;7.082;2023-03-09T07:45:00;14.53;;;7.13;;
4148;SDS011;2088;51.032;7.082;2023-03-09T07:47:27;14.40;;;7.37;;
4148;SDS011;2088;51.032;7.082;2023-03-09T07:49:56;13.77;;;6.77;;
4148;SDS011;2088;51.032;7.082;2023-03-09T07:52:23;9.17;;;5.67;;
4148;SDS011;2088;51.032;7.082;2023-03-09T07:54:56;11.53;;;6.23;;
4148;SDS011;2088;51.032;7.082;2023-03-09T07:57:23;12.40;;;5.53;;
4148;SDS011;2088;51.032;7.082;2023-03-09T07:59:51;11.47;;;5.77;;
4148;SDS011;2088;51.032;7.082;2023-03-09T08:02:19;12.97;;;6.80;;
4148;SDS011;2088;51.032;7.082;2023-03-09T08:04:46;11.93;;;6.00;;
4148;SDS011;2088;51.032;7.082;2023-03-09T08:07:13;11.70;;;6.73;;
4148;SDS011;2088;51.032;7.082;2023-03-09T08:09:40;11.90;;;6.17;;
4148;SDS011;2088;51.032;7.082;2023-03-09T08:12:09;14.40;;;6.67;;
4148;SDS011;2088;51.032;7.082;2023-03-09T08:14:36;12.30;;;7.27;;
4148;SDS011;2088;51.032;7.082;2023-03-09T08:17:03;15.20;;;6.90;;
4148;SDS011;2088;51.032;7.082;2023-03-09T08:19:30;13.13;;;7.47;;
4148;SDS011;2088;51.032;7.082;2023-03-09T08:21:57;14.20;;;6.80;;
4148;SDS011;2088;51.032;7.082;2023-03-09T08:24:24;12.30;;;6.90;;
4148;SDS011;2088;51.032;7.082;2023-03-09T08:26:53;14.93;;;7.60;;
4148;SDS011;2088;51.032;7.082;2023-03-09T08:29:21;14.30;;;9.13;;
4148;SDS011;2088;51.032;7.082;2023-03-09T08:31:48;14.80;;;8.33;;
4148;SDS011;2088;51.032;7.082;2023-03-09T08:34:17;17.70;;;8.30;;
4148;SDS011;2088;51.032;7.082;2023-03-09T08:36:44;19.53;;;9.23;;
4148;SDS011;2088;51.032;7.082;2023-03-09T08:39:11;19.67;;;7.50;;
4148;SDS011;2088;51.032;7.082;2023-03-09T08:41:38;19.73;;;7.73;;
4148;SDS011;2088;51.032;7.082;2023-03-09T08:44:05;13.93;;;8.57;;
4148;SDS011;2088;51.032;7.082;2023-03-09T08:46:34;13.73;;;8.43;;
4148;SDS011;2088;51.032;7.082;2023-03-09T08:49:01;20.10;;;9.80;;
4148;SDS011;2088;51.032;7.082;2023-03-09T08:51:28;15.07;;;7.33;;
4148;SDS011;2088;51.032;7.082;2023-03-09T08:53:55;14.00;;;8.57;;
4148;SDS011;2088;51.032;7.082;2023-03-09T08:56:22;16.43;;;8.80;;
4148;SDS011;2088;51.032;7.082;2023-03-09T08:58:49;13.80;;;8.10;;
4148;SDS011;2088;51.032;7.082;2023-03-09T09:01:16;17.43;;;9.43;;
4148;SDS011;2088;51.032;7.082;2023-03-09T09:03:45;17.53;;;8.63;;
4148;SDS011;2088;51.032;7.082;2023-03-09T09:06:13;18.93;;;8.77;;
4148;SDS011;2088;51.032;7.082;2023-03-09T09:08:41;14.77;;;8.37;;
4148;SDS011;2088;51.032;7.082;2023-03-09T09:11:08;15.93;;;9.03;;
4148;SDS011;2088;51.032;7.082;2023-03-09T09:13:35;18.20;;;8.13;;
4148;SDS011;2088;51.032;7.082;2023-03-09T09:16:03;16.13;;;7.70;;
4148;SDS011;2088;51.032;7.082;2023-03-09T09:18:31;12.17;;;7.17;;
4148;SDS011;2088;51.032;7.082;2023-03-09T09:20:59;14.53;;;7.70;;
4148;SDS011;2088;51.032;7.082;2023-03-09T09:23:33;17.17;;;8.53;;
4148;SDS011;2088;51.032;7.082;2023-03-09T09:26:00;19.93;;;8.60;;
4148;SDS011;2088;51.032;7.082;2023-03-09T09:28:27;14.70;;;7.80;;
4148;SDS011;2088;51.032;7.082;2023-03-09T09:30:56;13.67;;;8.00;;
4148;SDS011;2088;51.032;7.082;2023-03-09T09:33:23;23.00;;;8.13;;
4148;SDS011;2088;51.032;7.082;2023-03-09T09:35:54;13.30;;;7.40;;
4148;SDS011;2088;51.032;7.082;2023-03-09T09:38:24;15.90;;;6.97;;
4148;SDS011;2088;51.032;7.082;2023-03-09T09:40:51;14.57;;;7.30;;
4148;SDS011;2088;51.032;7.082;2023-03-09T09:43:19;12.17;;;6.70;;
4148;SDS011;2088;51.032;7.082;2023-03-09T09:45:47;13.17;;;6.70;;
4148;SDS011;2088;51.032;7.082;2023-03-09T09:48:14;13.20;;;5.63;;
4148;SDS011;2088;51.032;7.082;2023-03-09T09:50:49;10.33;;;6.10;;
4148;SDS011;2088;51.032;7.082;2023-03-09T09:53:21;15.10;;;8.17;;
4148;SDS011;2088;51.032;7.082;2023-03-09T09:55:52;9.40;;;5.70;;
4148;SDS011;2088;51.032;7.082;2023-03-09T09:58:23;11.70;;;7.47;;
4148;SDS011;2088;51.032;7.082;2023-03-09T10:00:53;15.13;;;7.80;;
4148;SDS011;2088;51.032;7.082;2023-03-09T10:03:21;13.07;;;8.30;;
4148;SDS011;2088;51.032;7.082;2023-03-09T10:05:50;14.30;;;7.60;;
4148;SDS011;2088;51.032;7.082;2023-03-09T10:08:26;13.23;;;6.50;;
4148;SDS011;2088;51.032;7.082;2023-03-09T10:10:56;14.60;;;7.57;;
4148;SDS011;2088;51.032;7.082;2023-03-09T10:13:28;12.83;;;7.67;;
4148;SDS011;2088;51.032;7.082;2023-03-09T10:15:55;14.60;;;7.40;;
4148;SDS011;2088;51.032;7.082;2023-03-09T10:18:24;11.23;;;7.03;;
4148;SDS011;2088;51.032;7.082;2023-03-09T10:20:56;10.83;;;6.73;;
4148;SDS011;2088;51.032;7.082;2023-03-09T10:23:24;13.80;;;7.10;;
4148;SDS011;2088;51.032;7.082;2023-03-09T10:25:54;14.43;;;7.27;;
4148;SDS011;2088;51.032;7.082;2023-03-09T10:28:26;11.30;;;7.23;;
4148;SDS011;2088;51.032;7.082;2023-03-09T10:30:55;10.60;;;5.67;;
4148;SDS011;2088;51.032;7.082;2023-03-09T10:33:25;11.20;;;5.80;;
4148;SDS011;2088;51.032;7.082;2023-03-09T10:35:54;10.00;;;5.83;;
4148;SDS011;2088;51.032;7.082;2023-03-09T10:38:23;10.50;;;6.70;;
4148;SDS011;2088;51.032;7.082;2023-03-09T10:40:50;9.57;;;5.43;;
4148;SDS011;2088;51.032;7.082;2023-03-09T10:43:20;8.37;;;5.60;;
4148;SDS011;2088;51.032;7.082;2023-03-09T10:45:50;10.20;;;4.73;;
4148;SDS011;2088;51.032;7.082;2023-03-09T10:48:19;8.70;;;5.27;;
4148;SDS011;2088;51.032;7.082;2023-03-09T10:50:54;9.63;;;5.60;;
4148;SDS011;2088;51.032;7.082;2023-03-09T10:53:23;13.07;;;6.23;;
4148;SDS011;2088;51.032;7.082;2023-03-09T10:55:52;11.00;;;6.80;;
4148;SDS011;2088;51.032;7.082;2023-03-09T10:58:20;14.97;;;7.13;;
4148;SDS011;2088;51.032;7.082;2023-03-09T11:00:48;13.13;;;7.50;;
4148;SDS011;2088;51.032;7.082;2023-03-09T11:03:20;11.07;;;7.73;;
4148;SDS011;2088;51.032;7.082;2023-03-09T11:05:47;14.20;;;8.40;;
4148;SDS011;2088;51.032;7.082;2023-03-09T11:08:22;9.20;;;6.20;;
4148;SDS011;2088;51.032;7.082;2023-03-09T11:10:59;17.07;;;8.63;;
4148;SDS011;2088;51.032;7.082;2023-03-09T11:13:27;17.17;;;7.97;;
4148;SDS011;2088;51.032;7.082;2023-03-09T11:16:03;18.20;;;7.80;;
4148;SDS011;2088;51.032;7.082;2023-03-09T11:18:32;17.53;;;8.87;;
4148;SDS011;2088;51.032;7.082;2023-03-09T11:20:59;14.03;;;8.53;;
4148;SDS011;2088;51.032;7.082;2023-03-09T11:23:27;26.43;;;8.90;;
4148;SDS011;2088;51.032;7.082;2023-03-09T11:25:59;18.43;;;10.67;;
4148;SDS011;2088;51.032;7.082;2023-03-09T11:28:30;16.27;;;8.90;;
4148;SDS011;2088;51.032;7.082;2023-03-09T11:31:00;16.30;;;9.40;;
4148;SDS011;2088;51.032;7.082;2023-03-09T11:33:28;16.30;;;7.70;;
4148;SDS011;2088;51.032;7.082;2023-03-09T11:35:58;13.93;;;7.30;;
4148;SDS011;2088;51.032;7.082;2023-03-09T11:38:25;18.50;;;9.83;;
4148;SDS011;2088;51.032;7.082;2023-03-09T11:40:59;13.77;;;7.80;;
4148;SDS011;2088;51.032;7.082;2023-03-09T11:43:29;14.93;;;7.80;;
4148;SDS011;2088;51.032;7.082;2023-03-09T11:45:57;9.63;;;6.70;;
4148;SDS011;2088;51.032;7.082;2023-03-09T11:48:27;10.47;;;7.03;;
4148;SDS011;2088;51.032;7.082;2023-03-09T11:50:58;9.23;;;6.70;;
4148;SDS011;2088;51.032;7.082;2023-03-09T11:53:28;13.20;;;6.73;;
4148;SDS011;2088;51.032;7.082;2023-03-09T11:55:57;10.13;;;6.60;;
4148;SDS011;2088;51.032;7.082;2023-03-09T11:58:26;9.97;;;6.10;;
4148;SDS011;2088;51.032;7.082;2023-03-09T12:00:55;8.63;;;5.77;;
4148;SDS011;2088;51.032;7.082;2023-03-09T12:03:25;10.90;;;6.37;;
4148;SDS011;2088;51.032;7.082;2023-03-09T12:05:54;12.20;;;6.30;;
4148;SDS011;2088;51.032;7.082;2023-03-09T12:08:26;8.67;;;6.47;;
4148;SDS011;2088;51.032;7.082;2023-03-09T12:10:55;7.90;;;6.30;;
4148;SDS011;2088;51.032;7.082;2023-03-09T12:13:26;9.80;;;6.57;;
4148;SDS011;2088;51.032;7.082;2023-03-09T12:15:57;11.53;;;6.53;;
4148;SDS011;2088;51.032;7.082;2023-03-09T12:18:26;7.70;;;5.13;;
4148;SDS011;2088;51.032;7.082;2023-03-09T12:20:54;14.23;;;7.10;;
4148;SDS011;2088;51.032;7.082;2023-03-09T12:23:45;8.73;;;5.67;;
4148;SDS011;2088;51.032;7.082;2023-03-09T12:26:18;12.43;;;6.50;;
4148;SDS011;2088;51.032;7.082;2023-03-09T12:28:54;10.70;;;5.93;;
4148;SDS011;2088;51.032;7.082;2023-03-09T12:31:29;9.00;;;5.73;;
4148;SDS011;2088;51.032;7.082;2023-03-09T12:34:04;11.47;;;6.53;;
4148;SDS011;2088;51.032;7.082;2023-03-09T12:36:33;11.23;;;6.80;;
4148;SDS011;2088;51.032;7.082;2023-03-09T12:41:56;12.63;;;7.83;;
4148;SDS011;2088;51.032;7.082;2023-03-09T12:47:17;10.60;;;7.33;;
4148;SDS011;2088;51.032;7.082;2023-03-09T12:49:47;8.93;;;6.10;;
4148;SDS011;2088;51.032;7.082;2023-03-09T12:55:18;12.80;;;7.23;;
4148;SDS011;2088;51.032;7.082;2023-03-09T12:57:48;12.03;;;7.00;;
4148;SDS011;2088;51.032;7.082;2023-03-09T13:00:26;9.10;;;6.30;;
4148;SDS011;2088;51.032;7.082;2023-03-09T13:02:55;12.33;;;7.40;;
4148;SDS011;2088;51.032;7.082;2023-03-09T13:05:32;10.87;;;6.80;;
4148;SDS011;2088;51.032;7.082;2023-03-09T13:08:05;10.77;;;6.50;;
4148;SDS011;2088;51.032;7.082;2023-03-09T13:10:33;11.00;;;8.00;;
4148;SDS011;2088;51.032;7.082;2023-03-09T13:15:48;14.37;;;7.10;;
4148;SDS011;2088;51.032;7.082;2023-03-09T13:18:22;13.93;;;8.20;;
4148;SDS011;2088;51.032;7.082;2023-03-09T13:20:51;10.63;;;6.67;;
4148;SDS011;2088;51.032;7.082;2023-03-09T13:23:19;10.60;;;6.50;;
4148;SDS011;2088;51.032;7.082;2023-03-09T13:25:47;11.50;;;6.00;;
4148;SDS011;2088;51.032;7.082;2023-03-09T13:28:20;10.00;;;6.73;;
4148;SDS011;2088;51.032;7.082;2023-03-09T13:30:50;10.00;;;6.73;;
4148;SDS011;2088;51.032;7.082;2023-03-09T13:33:18;9.37;;;6.60;;
4148;SDS011;2088;51.032;7.082;2023-03-09T13:35:50;11.17;;;6.30;;
4148;SDS011;2088;51.032;7.082;2023-03-09T13:38:19;12.30;;;7.80;;
4148;SDS011;2088;51.032;7.082;2023-03-09T13:40:47;9.70;;;6.57;;
4148;SDS011;2088;51.032;7.082;2023-03-09T13:43:16;11.30;;;7.23;;
4148;SDS011;2088;51.032;7.082;2023-03-09T13:45:54;12.90;;;7.17;;
4148;SDS011;2088;51.032;7.082;2023-03-09T13:48:22;9.97;;;6.80;;
4148;SDS011;2088;51.032;7.082;2023-03-09T13:50:49;15.60;;;8.23;;
4148;SDS011;2088;51.032;7.082;2023-03-09T13:53:20;12.37;;;8.07;;
4148;SDS011;2088;51.032;7.082;2023-03-09T13:55:53;12.33;;;7.67;;
4148;SDS011;2088;51.032;7.082;2023-03-09T13:58:20;12.57;;;7.27;;
4148;SDS011;2088;51.032;7.082;2023-03-09T14:00:52;13.60;;;8.47;;
4148;SDS011;2088;51.032;7.082;2023-03-09T14:03:21;10.77;;;7.67;;
4148;SDS011;2088;51.032;7.082;2023-03-09T14:05:53;11.40;;;8.20;;
4148;SDS011;2088;51.032;7.082;2023-03-09T14:08:20;14.00;;;8.03;;
4148;SDS011;2088;51.032;7.082;2023-03-09T14:10:48;10.80;;;7.87;;
4148;SDS011;2088;51.032;7.082;2023-03-09T14:13:16;11.23;;;6.87;;
4148;SDS011;2088;51.032;7.082;2023-03-09T14:15:45;11.27;;;7.80;;
4148;SDS011;2088;51.032;7.082;2023-03-09T14:18:17;15.50;;;9.00;;
4148;SDS011;2088;51.032;7.082;2023-03-09T14:20:50;14.90;;;6.53;;
4148;SDS011;2088;51.032;7.082;2023-03-09T14:23:28;12.20;;;7.47;;
4148;SDS011;2088;51.032;7.082;2023-03-09T14:25:58;12.70;;;8.07;;
4148;SDS011;2088;51.032;7.082;2023-03-09T14:28:25;9.53;;;7.10;;
4148;SDS011;2088;51.032;7.082;2023-03-09T14:30:53;8.40;;;7.30;;
4148;SDS011;2088;51.032;7.082;2023-03-09T14:33:21;9.50;;;6.90;;
4148;SDS011;2088;51.032;7.082;2023-03-09T14:35:50;11.73;;;7.17;;
4148;SDS011;2088;51.032;7.082;2023-03-09T14:38:30;13.83;;;8.07;;
4148;SDS011;2088;51.032;7.082;2023-03-09T14:40:57;8.80;;;6.63;;
4148;SDS011;2088;51.032;7.082;2023-03-09T14:43:30;9.83;;;7.30;;
4148;SDS011;2088;51.032;7.082;2023-03-09T14:46:08;10.23;;;6.00;;
4148;SDS011;2088;51.032;7.082;2023-03-09T14:48:35;12.33;;;7.37;;
4148;SDS011;2088;51.032;7.082;2023-03-09T14:51:06;9.77;;;7.33;;
4148;SDS011;2088;51.032;7.082;2023-03-09T14:53:35;12.10;;;7.40;;
4148;SDS011;2088;51.032;7.082;2023-03-09T14:56:02;7.67;;;5.60;;
4148;SDS011;2088;51.032;7.082;2023-03-09T14:58:29;10.63;;;7.00;;
4148;SDS011;2088;51.032;7.082;2023-03-09T15:00:57;13.43;;;6.40;;
4148;SDS011;2088;51.032;7.082;2023-03-09T15:03:24;13.03;;;6.27;;
4148;SDS011;2088;51.032;7.082;2023-03-09T15:05:51;16.10;;;6.77;;
4148;SDS011;2088;51.032;7.082;2023-03-09T15:08:19;9.80;;;7.13;;
4148;SDS011;2088;51.032;7.082;2023-03-09T15:10:47;9.60;;;5.80;;
4148;SDS011;2088;51.032;7.082;2023-03-09T15:13:14;10.80;;;5.80;;
4148;SDS011;2088;51.032;7.082;2023-03-09T15:15:41;12.83;;;6.83;;
4148;SDS011;2088;51.032;7.082;2023-03-09T15:18:08;9.77;;;6.50;;
4148;SDS011;2088;51.032;7.082;2023-03-09T15:20:38;7.77;;;5.57;;